Impacts METAR Board
IDs:

KLGA - New York/La Guardia, NY, US

Updated at: 2000 UTC 22 Apr 2018
Potential Impact None Slight Moderate High
Time 22/08Z 22/09Z 22/10Z 22/11Z 22/12Z 22/13Z 22/14Z 22/15Z 22/16Z 22/17Z 22/18Z 22/19Z 22/20Z
Temp49 48 47 47 50 52 54 57 59 61 62 63 64
Dewpt22 23 28 24 24 24 23 22 18 19 15 14 24
Altim30.38 30.37 30.38 30.41 30.41 30.41 30.41 30.41 30.39 30.37 30.36 30.34 30.33
VIS10 10 10 10 10 10 10 10 10 10 10 10 10
CIG-- -- -- -- -- -- -- -- -- -- -- -- --
CoverSCTSCTFEWFEWFEWFEWFEWFEWFEWFEWFEWSCTSCT
FltCatVFRVFRVFRVFRVFRVFRVFRVFRVFRVFRVFRVFRVFR
WX--------------------------
WDir320320320270310310320350007070160
WSpd7 7 3 3 5 6 7 4 5 5 5 7 12
WGst-- -- -- -- -- -- -- -- -- -- -- -- 16
Raw hourly METARs
KLGA 220751Z 32007KT 10SM SCT250 09/M06 A3038 RMK AO2 SLP286 T00941056
KLGA 220851Z 32007KT 10SM SCT250 09/M05 A3037 RMK AO2 SLP285 T00891050 50004
KLGA 220951Z 32003KT 10SM FEW250 08/M02 A3038 RMK AO2 SLP287 T00831022
KLGA 221051Z 27003KT 10SM FEW230 08/M04 A3041 RMK AO2 SLP296 T00831044
KLGA 221151Z 31005KT 10SM FEW230 10/M04 A3041 RMK AO2 SLP298 T01001044 10106 20078 53014
KLGA 221251Z 31006KT 10SM FEW230 11/M04 A3041 RMK AO2 SLP297 T01111044
KLGA 221351Z 32007KT 10SM FEW230 12/M05 A3041 RMK AO2 SLP297 T01221050
KLGA 221451Z 35004KT 10SM FEW230 14/M06 A3041 RMK AO2 SLP297 T01391056 56001
KLGA 221551Z VRB05KT 10SM FEW220 15/M08 A3039 RMK AO2 SLP291 T01501078
KLGA 221651Z VRB05KT 10SM FEW220 16/M07 A3037 RMK AO2 SLP284 T01611072
KLGA 221751Z 07005KT 10SM FEW210 FEW250 17/M09 A3036 RMK AO2 SLP281 T01671094 10167 20100 56016
KLGA 221851Z 07007KT 10SM SCT250 17/M10 A3034 RMK AO2 SLP274 T01721100
KLGA 221951Z 16012G16KT 10SM SCT250 18/M04 A3033 RMK AO2 SLP268 T01781044



Page loaded:  20:22 UTC  |   01:22 PM Pacific  |   02:22 PM Mountain  |   03:22 PM Central  |   04:22 PM Eastern

 

ADVISORIES

FORECASTS

FORECASTS

OBSERVATIONS

USER TOOLS

ABOUT US